Weather at Conner Airport [CLOSED]

Public forecast

Using degrees Fahrenheit for public forecast. Weather courtesy of forecast.io.

Closest aviation weather report (METAR) to Conner Airport

Closest report is Laughlin Bullhead International Airport, 32.7 nm (60.5 km) E. Retrieved 2021/06/20 08:15 UTC (43 minutes ago):

KIFP 200815Z AUTO 00000KT 10SM CLR 42/02 A2955 RMK AO2

Closest aviation forecast (TAF) to Conner Airport

Closest forecast is Laughlin Bullhead International Airport, 32.7 nm (60.5 km) E. Retrieved 2021/06/20 06:22 UTC (3 hours ago):

TAF KIFP 200520Z 2006/2106 VRB05KT P6SM SKC FM201200 VRB05KT P6SM SKC FM201800 18010KT P6SM SKC FM202100 19012G20KT P6SM SKC FM210400 18007KT P6SM SKC